createdAt,value
2022-08-23T00:01:47.866Z,21.00
2022-08-23T00:04:20.300Z,21.00
2022-08-23T00:06:50.595Z,20.90
2022-08-23T00:09:20.108Z,20.90
2022-08-23T00:11:51.470Z,20.80
2022-08-23T00:14:22.733Z,20.80
2022-08-23T00:16:52.110Z,20.70
2022-08-23T00:19:23.863Z,20.70
2022-08-23T00:21:54.867Z,20.60
2022-08-23T00:24:24.851Z,20.60
2022-08-23T00:26:58.256Z,20.50
2022-08-23T00:29:29.254Z,20.50
2022-08-23T00:31:58.444Z,20.40
2022-08-23T00:34:28.539Z,20.40
2022-08-23T00:36:57.540Z,20.40
2022-08-23T00:39:26.257Z,20.30
2022-08-23T00:41:59.745Z,20.30
2022-08-23T00:44:52.444Z,20.20
2022-08-23T00:47:41.693Z,20.20
2022-08-23T00:50:24.508Z,20.10
2022-08-23T00:53:01.604Z,20.10
2022-08-23T00:55:30.951Z,20.00
2022-08-23T00:58:00.550Z,20.00
2022-08-23T01:00:29.888Z,20.00
2022-08-23T01:02:58.929Z,20.00
2022-08-23T01:05:35.756Z,20.00
2022-08-23T01:08:04.711Z,20.00
2022-08-23T01:10:38.674Z,20.10
2022-08-23T01:13:15.455Z,20.10
2022-08-23T01:15:49.321Z,20.10
2022-08-23T01:18:20.464Z,20.10
2022-08-23T01:21:06.614Z,20.10
2022-08-23T01:23:44.624Z,20.00
2022-08-23T01:26:21.641Z,20.00
2022-08-23T01:28:52.173Z,19.90
2022-08-23T01:31:23.049Z,19.90
2022-08-23T01:33:56.464Z,19.90
2022-08-23T01:36:25.143Z,19.90
2022-08-23T01:38:55.768Z,19.90
2022-08-23T01:41:24.847Z,19.80
2022-08-23T01:43:54.131Z,19.80
2022-08-23T01:46:27.061Z,19.80
2022-08-23T01:48:57.257Z,19.70
2022-08-23T01:51:28.002Z,19.70
2022-08-23T01:53:58.315Z,19.70
2022-08-23T01:56:39.275Z,19.70
2022-08-23T01:59:13.900Z,19.70
2022-08-23T02:01:47.664Z,19.60
2022-08-23T02:04:16.869Z,19.60
2022-08-23T02:06:45.435Z,19.60
2022-08-23T02:09:20.193Z,19.50
2022-08-23T02:11:49.167Z,19.50
2022-08-23T02:14:20.508Z,19.50
2022-08-23T02:17:03.009Z,19.50
2022-08-23T02:19:34.500Z,19.50
2022-08-23T02:22:05.111Z,19.50
2022-08-23T02:24:35.218Z,19.50
2022-08-23T02:27:06.767Z,19.40
2022-08-23T02:29:40.252Z,19.40
2022-08-23T02:32:13.544Z,19.30
2022-08-23T02:34:44.220Z,19.30
2022-08-23T02:37:21.008Z,19.30
2022-08-23T02:39:51.543Z,19.20
2022-08-23T02:42:20.296Z,19.10
2022-08-23T02:44:48.900Z,19.10
2022-08-23T02:47:18.369Z,19.00
2022-08-23T02:49:58.440Z,19.00
2022-08-23T02:52:27.058Z,18.90
2022-08-23T02:54:58.318Z,18.90
2022-08-23T02:57:27.715Z,18.90
2022-08-23T03:00:00.166Z,18.80
2022-08-23T03:02:28.960Z,18.70
2022-08-23T03:04:57.562Z,18.70
2022-08-23T03:07:26.503Z,18.60
2022-08-23T03:09:56.509Z,18.60
2022-08-23T03:12:25.609Z,18.50
2022-08-23T03:14:56.475Z,18.40
2022-08-23T03:17:26.333Z,18.30
2022-08-23T03:19:55.461Z,18.20
2022-08-23T03:22:25.728Z,18.10
2022-08-23T03:24:59.695Z,18.00
2022-08-23T03:27:38.432Z,18.00
2022-08-23T03:30:19.245Z,17.90
2022-08-23T03:32:53.025Z,17.80
2022-08-23T03:35:21.520Z,17.80
2022-08-23T03:37:55.064Z,17.80
2022-08-23T03:40:25.966Z,17.70
2022-08-23T03:42:54.604Z,17.70
2022-08-23T03:45:25.985Z,17.70
2022-08-23T03:47:54.696Z,17.70
2022-08-23T03:50:23.332Z,17.60
2022-08-23T03:52:52.862Z,17.60
2022-08-23T03:55:22.160Z,17.60
2022-08-23T03:57:53.066Z,17.60
2022-08-23T04:00:22.948Z,17.60
2022-08-23T04:02:54.012Z,17.50
2022-08-23T04:05:24.058Z,17.50
2022-08-23T04:07:52.625Z,17.50
2022-08-23T04:10:23.906Z,17.50
2022-08-23T04:12:56.709Z,17.50
2022-08-23T04:15:26.907Z,17.40
2022-08-23T04:17:55.596Z,17.40
2022-08-23T04:20:25.841Z,17.30
2022-08-23T04:23:03.072Z,17.30
2022-08-23T04:25:35.961Z,17.20
2022-08-23T04:28:07.511Z,17.20
2022-08-23T04:30:36.302Z,17.20
2022-08-23T04:33:10.618Z,17.20
2022-08-23T04:35:41.527Z,17.20
2022-08-23T04:38:24.344Z,17.20
2022-08-23T04:41:14.043Z,17.10
2022-08-23T04:43:45.187Z,17.10
2022-08-23T04:46:16.651Z,17.10
2022-08-23T04:48:48.622Z,17.10
2022-08-23T04:51:19.242Z,17.20
2022-08-23T04:53:48.123Z,17.20
2022-08-23T04:56:34.717Z,17.30
2022-08-23T04:59:05.938Z,17.30
2022-08-23T05:01:35.813Z,17.40
2022-08-23T05:04:05.926Z,17.40
2022-08-23T05:06:37.171Z,17.50
2022-08-23T05:09:06.560Z,17.50
2022-08-23T05:11:37.473Z,17.50
2022-08-23T05:14:07.879Z,17.60
2022-08-23T05:16:36.434Z,17.50
2022-08-23T05:19:10.655Z,17.60
2022-08-23T05:21:44.745Z,17.60
2022-08-23T05:24:14.050Z,17.60
2022-08-23T05:26:44.653Z,17.60
2022-08-23T05:29:15.382Z,17.60
2022-08-23T05:31:50.842Z,17.60
2022-08-23T05:34:22.683Z,17.60
2022-08-23T05:37:00.595Z,17.60
2022-08-23T05:39:36.766Z,17.70
2022-08-23T05:42:11.487Z,17.80
2022-08-23T05:44:41.490Z,17.80
2022-08-23T05:47:15.151Z,17.90
2022-08-23T05:49:54.962Z,18.00
2022-08-23T05:52:24.664Z,18.10
2022-08-23T05:54:53.108Z,18.20
2022-08-23T05:57:47.603Z,18.30
2022-08-23T06:00:17.689Z,18.40
2022-08-23T06:02:49.373Z,18.50
2022-08-23T06:05:20.720Z,18.60
2022-08-23T06:07:50.680Z,18.70
2022-08-23T06:10:21.657Z,18.80
2022-08-23T06:13:04.283Z,18.90
2022-08-23T06:15:34.252Z,19.00
2022-08-23T06:18:03.173Z,19.20
2022-08-23T06:20:32.673Z,19.30
2022-08-23T06:23:12.084Z,19.30
2022-08-23T06:25:42.409Z,19.40
2022-08-23T06:28:16.813Z,19.50
2022-08-23T06:30:47.129Z,19.60
2022-08-23T06:33:21.802Z,19.70
2022-08-23T06:36:03.393Z,19.80
2022-08-23T06:38:51.084Z,19.90
2022-08-23T06:42:00.812Z,20.00
2022-08-23T06:44:35.204Z,20.10
2022-08-23T06:47:18.461Z,20.20
2022-08-23T06:49:58.201Z,20.30
2022-08-23T06:53:06.992Z,20.40
2022-08-23T06:56:11.279Z,20.50
2022-08-23T06:58:54.510Z,20.60
2022-08-23T07:01:50.111Z,20.70
2022-08-23T07:04:30.075Z,20.90
2022-08-23T07:07:11.958Z,21.00
2022-08-23T07:09:44.737Z,21.10
2022-08-23T07:12:13.376Z,21.10
2022-08-23T07:14:44.816Z,21.20
2022-08-23T07:17:14.644Z,21.30
2022-08-23T07:19:45.708Z,21.50
2022-08-23T07:22:17.158Z,21.60
2022-08-23T07:24:46.128Z,21.70
2022-08-23T07:27:18.174Z,21.80
2022-08-23T07:29:56.361Z,21.90
2022-08-23T07:32:31.055Z,22.00
2022-08-23T07:35:07.024Z,22.10
2022-08-23T07:37:37.958Z,22.30
2022-08-23T07:40:09.294Z,22.40
2022-08-23T07:43:08.778Z,22.50
2022-08-23T07:45:40.781Z,22.70
2022-08-23T07:48:11.852Z,22.80
2022-08-23T07:51:04.016Z,22.90
2022-08-23T07:53:38.072Z,23.00
2022-08-23T07:56:11.265Z,23.10
2022-08-23T07:59:05.309Z,23.20
2022-08-23T08:01:43.933Z,23.30
2022-08-23T08:04:13.541Z,23.40
2022-08-23T08:07:04.849Z,23.50
2022-08-23T08:09:36.423Z,23.60
2022-08-23T08:12:05.988Z,23.70
2022-08-23T08:14:36.228Z,23.80
2022-08-23T08:17:08.551Z,23.80
2022-08-23T08:20:12.568Z,23.90
2022-08-23T08:23:15.121Z,24.00
2022-08-23T08:26:10.255Z,24.10
2022-08-23T08:28:43.325Z,24.20
2022-08-23T08:31:13.387Z,24.30
2022-08-23T08:33:42.224Z,24.40
2022-08-23T08:36:30.054Z,24.50
2022-08-23T08:39:00.865Z,24.60
2022-08-23T08:42:04.526Z,24.70
2022-08-23T08:44:46.230Z,24.80
2022-08-23T08:47:23.492Z,24.80
2022-08-23T08:50:00.246Z,24.90
2022-08-23T08:52:35.354Z,25.00
2022-08-23T08:55:15.804Z,25.10
2022-08-23T08:57:49.365Z,25.20
2022-08-23T09:00:23.454Z,25.30
2022-08-23T09:02:53.064Z,25.30
2022-08-23T09:05:26.961Z,25.50
2022-08-23T09:08:06.814Z,25.60
2022-08-23T09:10:58.782Z,25.70
2022-08-23T09:13:46.464Z,25.80
2022-08-23T09:16:31.087Z,25.90
2022-08-23T09:19:02.438Z,26.00
2022-08-23T09:21:49.610Z,26.20
2022-08-23T09:24:22.757Z,26.30
2022-08-23T09:27:18.366Z,26.40
2022-08-23T09:29:57.268Z,26.50
2022-08-23T09:32:34.803Z,26.60
2022-08-23T09:35:16.176Z,26.60
2022-08-23T09:37:54.950Z,26.70
2022-08-23T09:40:34.467Z,26.80
2022-08-23T09:43:14.124Z,26.80
2022-08-23T09:45:53.834Z,27.00
2022-08-23T09:48:40.039Z,27.10
2022-08-23T09:51:23.793Z,27.20
2022-08-23T09:54:06.644Z,27.20
2022-08-23T09:56:39.905Z,27.30
2022-08-23T09:59:40.361Z,27.40
2022-08-23T10:02:19.461Z,27.50
2022-08-23T10:05:03.061Z,27.60
2022-08-23T10:07:38.406Z,27.70
2022-08-23T10:10:19.912Z,27.80
2022-08-23T10:12:59.160Z,27.90
2022-08-23T10:15:45.189Z,28.00
2022-08-23T10:18:29.654Z,28.20
2022-08-23T10:21:06.255Z,28.20
2022-08-23T10:23:53.662Z,28.40
2022-08-23T10:26:28.744Z,28.50
2022-08-23T10:29:21.441Z,28.50
2022-08-23T10:31:59.725Z,28.60
2022-08-23T10:34:50.922Z,28.70
2022-08-23T10:37:52.311Z,28.70
2022-08-23T10:40:32.979Z,28.90
2022-08-23T10:43:15.192Z,29.00
2022-08-23T10:45:50.170Z,29.00
2022-08-23T10:48:33.281Z,29.10
2022-08-23T10:51:05.501Z,29.20
2022-08-23T10:53:46.226Z,29.30
2022-08-23T10:56:19.430Z,29.40
2022-08-23T10:58:57.063Z,29.60
2022-08-23T11:01:41.376Z,29.90
2022-08-23T11:04:25.449Z,30.50
2022-08-23T11:07:19.736Z,31.50
2022-08-23T11:09:58.695Z,32.50
2022-08-23T11:12:35.300Z,33.20
2022-08-23T11:15:22.990Z,33.90
2022-08-23T11:18:09.984Z,34.70
2022-08-23T11:21:10.950Z,35.40
2022-08-23T11:23:54.552Z,36.40
2022-08-23T11:27:26.102Z,37.20
2022-08-23T11:30:02.612Z,38.00
2022-08-23T11:33:04.143Z,38.60
2022-08-23T11:35:45.654Z,39.40
2022-08-23T11:38:38.884Z,39.80
2022-08-23T11:41:23.437Z,40.20
2022-08-23T11:44:24.809Z,40.60
2022-08-23T11:47:12.264Z,40.70
2022-08-23T11:50:25.090Z,41.00
2022-08-23T11:53:24.599Z,41.10
2022-08-23T11:56:46.376Z,41.40
2022-08-23T11:59:43.120Z,41.60
2022-08-23T12:02:47.547Z,41.60
2022-08-23T12:05:32.675Z,41.80
2022-08-23T12:08:49.198Z,42.10
2022-08-23T12:11:20.653Z,42.70
2022-08-23T12:13:54.564Z,43.30
2022-08-23T12:16:34.179Z,43.70
2022-08-23T12:19:10.078Z,44.10
2022-08-23T12:21:53.490Z,44.40
2022-08-23T12:24:32.323Z,44.80
2022-08-23T12:27:18.131Z,44.90
2022-08-23T12:29:56.873Z,45.20
2022-08-23T12:32:44.291Z,45.00
2022-08-23T12:35:33.116Z,44.30
2022-08-23T12:38:08.875Z,44.50
2022-08-23T12:40:42.588Z,44.90
2022-08-23T12:43:24.550Z,45.00
2022-08-23T12:45:55.328Z,45.00
2022-08-23T12:48:26.513Z,45.20
2022-08-23T12:50:57.807Z,45.50
2022-08-23T12:53:32.279Z,45.80
2022-08-23T12:56:03.767Z,46.00
2022-08-23T12:58:38.289Z,46.50
2022-08-23T13:01:10.088Z,47.00
2022-08-23T13:03:53.614Z,47.50
2022-08-23T13:06:53.258Z,48.00
2022-08-23T13:09:32.078Z,48.40
2022-08-23T13:12:02.551Z,48.80
2022-08-23T13:14:43.107Z,49.30
2022-08-23T13:17:23.327Z,49.70
2022-08-23T13:20:12.880Z,50.10
2022-08-23T13:23:00.920Z,50.30
2022-08-23T13:25:33.386Z,50.50
2022-08-23T13:28:04.676Z,50.30
2022-08-23T13:30:36.648Z,50.00
2022-08-23T13:33:24.323Z,49.70
2022-08-23T13:36:06.554Z,49.40
2022-08-23T13:38:43.970Z,49.20
2022-08-23T13:41:27.792Z,49.30
2022-08-23T13:43:56.462Z,49.60
2022-08-23T13:46:29.408Z,49.80
2022-08-23T13:49:01.756Z,49.80
2022-08-23T13:51:36.598Z,49.60
2022-08-23T13:54:08.617Z,49.70
2022-08-23T13:56:41.730Z,49.90
2022-08-23T13:59:20.928Z,50.20
2022-08-23T14:01:50.879Z,50.40
2022-08-23T14:04:19.441Z,50.60
2022-08-23T14:06:49.038Z,50.60
2022-08-23T14:09:18.183Z,50.40
2022-08-23T14:11:48.805Z,50.10
2022-08-23T14:14:17.460Z,50.10
2022-08-23T14:16:46.206Z,50.10
2022-08-23T14:19:16.415Z,49.90
2022-08-23T14:21:47.240Z,49.40
2022-08-23T14:24:15.821Z,49.10
2022-08-23T14:26:50.274Z,49.20
2022-08-23T14:29:22.491Z,49.50
2022-08-23T14:31:52.385Z,49.70
2022-08-23T14:34:22.888Z,49.90
2022-08-23T14:39:42.033Z,50.10
2022-08-23T14:42:11.088Z,50.00
2022-08-23T14:44:39.612Z,49.70
2022-08-23T14:47:08.277Z,49.50
2022-08-23T14:49:38.597Z,49.60
2022-08-23T14:52:07.609Z,49.80
2022-08-23T14:54:36.317Z,49.70
2022-08-23T14:57:05.278Z,49.20
2022-08-23T14:59:33.828Z,48.80
2022-08-23T15:02:02.519Z,47.90
2022-08-23T15:04:34.406Z,46.60
2022-08-23T15:07:20.987Z,45.20
2022-08-23T15:09:50.561Z,44.10
2022-08-23T15:15:12.151Z,44.30
2022-08-23T15:17:48.021Z,45.00
2022-08-23T15:20:16.665Z,45.30
2022-08-23T15:22:52.374Z,45.80
2022-08-23T15:25:25.931Z,46.20
2022-08-23T15:27:54.664Z,46.50
2022-08-23T15:30:24.973Z,46.30
2022-08-23T15:32:56.522Z,46.00
2022-08-23T15:35:26.592Z,45.80
2022-08-23T15:37:57.728Z,45.90
2022-08-23T15:40:27.148Z,46.10
2022-08-23T15:42:55.990Z,46.20
2022-08-23T15:45:25.011Z,46.50
2022-08-23T15:47:56.447Z,46.70
2022-08-23T15:50:29.413Z,46.80
2022-08-23T15:52:59.354Z,46.80
2022-08-23T15:55:32.323Z,46.70
2022-08-23T15:58:01.132Z,46.50
2022-08-23T16:00:29.745Z,45.90
2022-08-23T16:03:18.859Z,45.10
2022-08-23T16:05:49.961Z,44.20
2022-08-23T16:08:24.835Z,43.00
2022-08-23T16:10:54.534Z,41.90
2022-08-23T16:13:23.731Z,40.90
2022-08-23T16:15:52.348Z,40.00
2022-08-23T16:18:21.221Z,39.40
2022-08-23T16:20:49.726Z,39.50
2022-08-23T16:23:26.556Z,40.00
2022-08-23T16:25:57.956Z,40.70
2022-08-23T16:28:29.761Z,41.40
2022-08-23T16:30:58.550Z,42.10
2022-08-23T16:33:27.179Z,42.50
2022-08-23T16:35:55.746Z,42.80
2022-08-23T16:38:25.684Z,43.10
2022-08-23T16:40:54.244Z,43.40
2022-08-23T16:43:25.362Z,43.40
2022-08-23T16:45:59.961Z,43.40
2022-08-23T16:48:31.569Z,43.50
2022-08-23T16:51:00.191Z,43.40
2022-08-23T16:53:30.238Z,43.20
2022-08-23T16:55:58.793Z,42.90
2022-08-23T16:58:27.360Z,42.80
2022-08-23T17:00:55.915Z,42.50
2022-08-23T17:03:27.153Z,42.30
2022-08-23T17:05:55.887Z,42.00
2022-08-23T17:08:24.406Z,41.30
2022-08-23T17:10:54.229Z,40.70
2022-08-23T17:13:23.627Z,40.40
2022-08-23T17:15:52.085Z,40.30
2022-08-23T17:18:20.564Z,40.40
2022-08-23T17:20:50.071Z,40.50
2022-08-23T17:23:18.776Z,40.50
2022-08-23T17:25:48.696Z,40.50
2022-08-23T17:28:19.331Z,40.30
2022-08-23T17:30:47.758Z,40.10
2022-08-23T17:33:16.345Z,39.90
2022-08-23T17:35:45.660Z,39.80
2022-08-23T17:38:15.037Z,39.70
2022-08-23T17:40:44.570Z,39.60
2022-08-23T17:43:13.357Z,39.30
2022-08-23T17:45:45.049Z,38.80
2022-08-23T17:48:15.713Z,38.00
2022-08-23T17:50:44.881Z,37.20
2022-08-23T17:53:14.443Z,36.40
2022-08-23T17:55:43.721Z,35.60
2022-08-23T17:58:13.548Z,35.00
2022-08-23T18:00:44.026Z,34.40
2022-08-23T18:03:12.872Z,33.90
2022-08-23T18:05:43.057Z,33.50
2022-08-23T18:08:11.634Z,33.10
2022-08-23T18:10:40.496Z,32.70
2022-08-23T18:13:09.027Z,32.30
2022-08-23T18:15:37.750Z,32.00
2022-08-23T18:18:08.046Z,31.70
2022-08-23T18:20:36.748Z,31.40
2022-08-23T18:23:05.978Z,31.10
2022-08-23T18:25:34.651Z,30.90
2022-08-23T18:28:09.852Z,30.60
2022-08-23T18:30:41.182Z,30.40
2022-08-23T18:33:12.619Z,30.10
2022-08-23T18:35:42.034Z,29.90
2022-08-23T18:38:12.608Z,29.70
2022-08-23T18:40:46.411Z,29.50
2022-08-23T18:43:18.478Z,29.30
2022-08-23T18:45:49.428Z,29.10
2022-08-23T18:48:20.328Z,28.90
2022-08-23T18:50:49.899Z,28.80
2022-08-23T18:53:20.462Z,28.60
2022-08-23T18:55:51.045Z,28.50
2022-08-23T18:58:21.030Z,28.30
2022-08-23T19:00:51.603Z,28.20
2022-08-23T19:03:21.672Z,28.00
2022-08-23T19:05:50.328Z,27.80
2022-08-23T19:08:19.465Z,27.70
2022-08-23T19:10:48.474Z,27.60
2022-08-23T19:13:17.098Z,27.40
2022-08-23T19:15:45.644Z,27.30
2022-08-23T19:18:14.667Z,27.20
2022-08-23T19:20:44.622Z,27.10
2022-08-23T19:23:13.861Z,26.90
2022-08-23T19:25:45.396Z,26.80
2022-08-23T19:28:19.666Z,26.70
2022-08-23T19:30:50.066Z,26.60
2022-08-23T19:33:18.900Z,26.50
2022-08-23T19:35:49.841Z,26.40
2022-08-23T19:38:21.091Z,26.20
2022-08-23T19:40:50.848Z,26.10
2022-08-23T19:43:19.413Z,25.90
2022-08-23T19:45:48.419Z,25.70
2022-08-23T19:48:17.058Z,25.50
2022-08-23T19:50:45.546Z,25.40
2022-08-23T19:53:15.605Z,25.30
2022-08-23T19:55:45.701Z,25.20
2022-08-23T19:58:15.796Z,25.10
2022-08-23T20:00:44.225Z,25.00
2022-08-23T20:03:13.267Z,25.00
2022-08-23T20:05:42.150Z,24.90
2022-08-23T20:08:10.646Z,24.80
2022-08-23T20:10:40.541Z,24.70
2022-08-23T20:13:09.028Z,24.70
2022-08-23T20:15:39.547Z,24.60
2022-08-23T20:18:08.300Z,24.50
2022-08-23T20:20:36.928Z,24.40
2022-08-23T20:23:22.980Z,24.30
2022-08-23T20:25:52.910Z,24.20
2022-08-23T20:28:26.138Z,24.10
2022-08-23T20:30:54.944Z,24.00
2022-08-23T20:33:23.685Z,23.90
2022-08-23T20:35:52.240Z,23.90
2022-08-23T20:38:33.233Z,23.80
2022-08-23T20:41:03.595Z,23.80
2022-08-23T20:43:32.909Z,23.70
2022-08-23T20:46:01.477Z,23.60
2022-08-23T20:48:30.898Z,23.50
2022-08-23T20:51:01.308Z,23.50
2022-08-23T20:53:29.939Z,23.40
2022-08-23T20:55:59.677Z,23.30
2022-08-23T20:58:29.803Z,23.30
2022-08-23T21:00:58.684Z,23.20
2022-08-23T21:03:27.284Z,23.10
2022-08-23T21:06:04.593Z,23.10
2022-08-23T21:08:33.927Z,23.00
2022-08-23T21:11:03.630Z,22.90
2022-08-23T21:13:35.035Z,22.90
2022-08-23T21:16:03.802Z,22.90
2022-08-23T21:18:32.381Z,22.80
2022-08-23T21:21:00.839Z,22.80
2022-08-23T21:23:29.370Z,22.70
2022-08-23T21:25:59.174Z,22.60
2022-08-23T21:28:29.135Z,22.60
2022-08-23T21:31:05.682Z,22.50
2022-08-23T21:33:38.005Z,22.50
2022-08-23T21:36:08.973Z,22.50
2022-08-23T21:38:37.926Z,22.40
2022-08-23T21:41:09.638Z,22.30
2022-08-23T21:43:39.409Z,22.30
2022-08-23T21:46:09.351Z,22.20
2022-08-23T21:48:37.807Z,22.20
2022-08-23T21:51:06.423Z,22.10
2022-08-23T21:53:34.919Z,22.10
2022-08-23T21:56:03.508Z,22.00
2022-08-23T21:58:31.990Z,22.00
2022-08-23T22:01:00.650Z,22.00
2022-08-23T22:03:30.511Z,21.90
2022-08-23T22:05:58.956Z,21.90
2022-08-23T22:08:27.467Z,21.80
2022-08-23T22:10:57.535Z,21.80
2022-08-23T22:13:28.767Z,21.80
2022-08-23T22:15:57.594Z,21.70
2022-08-23T22:18:26.163Z,21.70
2022-08-23T22:20:58.286Z,21.70
2022-08-23T22:23:27.789Z,21.60
2022-08-23T22:25:57.779Z,21.60
2022-08-23T22:28:26.353Z,21.50
2022-08-23T22:31:01.075Z,21.40
2022-08-23T22:33:30.316Z,21.40
2022-08-23T22:36:04.618Z,21.30
2022-08-23T22:38:33.145Z,21.30
2022-08-23T22:41:01.721Z,21.30
2022-08-23T22:43:30.426Z,21.30
2022-08-23T22:46:01.219Z,21.30
2022-08-23T22:48:32.519Z,21.30
2022-08-23T22:51:12.514Z,21.30
2022-08-23T22:53:42.963Z,21.40
2022-08-23T22:56:14.096Z,21.40
2022-08-23T22:58:42.670Z,21.40
2022-08-23T23:01:18.694Z,21.40
2022-08-23T23:03:49.555Z,21.30
2022-08-23T23:06:21.494Z,21.30
2022-08-23T23:08:50.492Z,21.20
2022-08-23T23:11:20.551Z,21.10
2022-08-23T23:13:49.127Z,21.10
2022-08-23T23:16:20.658Z,21.00
2022-08-23T23:19:03.922Z,20.90
2022-08-23T23:21:35.939Z,20.90
2022-08-23T23:24:05.780Z,20.80
2022-08-23T23:26:34.622Z,20.80
2022-08-23T23:29:03.292Z,20.80
2022-08-23T23:31:33.806Z,20.80
2022-08-23T23:34:02.869Z,20.70
2022-08-23T23:36:31.952Z,20.70
2022-08-23T23:39:03.386Z,20.70
2022-08-23T23:41:32.265Z,20.60
2022-08-23T23:44:00.893Z,20.60
2022-08-23T23:46:29.802Z,20.50
2022-08-23T23:48:58.599Z,20.50
2022-08-23T23:51:30.150Z,20.50
2022-08-23T23:54:01.059Z,20.40
2022-08-23T23:56:32.814Z,20.30
2022-08-23T23:59:01.416Z,20.30
